Time;durP1;ratioP1;P1;durP2;ratioP2;P2;SDS_P1;SDS_P2;PMS_P1;PMS_P2;Temp;Humidity;BMP_temperature;BMP_pressure;BME280_temperature;BME280_humidity;BME280_pressure;Samples;Min_cycle;Max_cycle;Signal;HPM_P1;HPM_P2
2022/01/29 00:02:02;;;;;;;6.75;3.10;;;;;;;;;;5021674;28;20033;-70
2022/01/29 00:04:28;;;;;;;3.38;1.63;;;;;;;;;;5024589;28;20034;-70
2022/01/29 00:06:54;;;;;;;3.00;1.70;;;;;;;;;;5026256;28;20105;-70
2022/01/29 00:09:20;;;;;;;4.13;2.78;;;;;;;;;;5023275;28;20037;-70
2022/01/29 00:11:46;;;;;;;3.85;1.92;;;;;;;;;;5023484;28;20026;-70
2022/01/29 00:14:13;;;;;;;3.78;1.90;;;;;;;;;;5025686;28;20374;-70
2022/01/29 00:16:40;;;;;;;5.35;2.08;;;;;;;;;;5027939;28;20060;-70
2022/01/29 00:19:07;;;;;;;5.32;2.25;;;;;;;;;;5027699;28;20029;-70
2022/01/29 00:21:33;;;;;;;3.83;1.90;;;;;;;;;;5025927;28;20485;-70
2022/01/29 00:24:00;;;;;;;4.20;1.70;;;;;;;;;;5026620;28;20623;-70
2022/01/29 00:26:27;;;;;;;5.18;2.00;;;;;;;;;;5028234;28;20033;-70
2022/01/29 00:28:55;;;;;;;4.35;1.85;;;;;;;;;;5027303;28;20025;-70
2022/01/29 00:31:22;;;;;;;2.70;1.75;;;;;;;;;;5028392;28;20025;-70
2022/01/29 00:33:48;;;;;;;3.25;2.00;;;;;;;;;;5028032;28;20509;-70
2022/01/29 00:36:14;;;;;;;4.15;2.03;;;;;;;;;;5027881;28;20029;-70
2022/01/29 00:38:40;;;;;;;4.90;1.85;;;;;;;;;;5026837;28;20703;-70
2022/01/29 00:41:07;;;;;;;3.15;2.03;;;;;;;;;;5028268;28;20034;-70
2022/01/29 00:43:34;;;;;;;4.07;1.85;;;;;;;;;;5028094;28;20048;-70
2022/01/29 00:46:00;;;;;;;4.97;2.30;;;;;;;;;;5027606;28;20112;-70
2022/01/29 00:48:26;;;;;;;3.92;2.13;;;;;;;;;;5022297;28;20030;-70
2022/01/29 00:50:53;;;;;;;4.60;2.30;;;;;;;;;;5024057;28;20036;-70
2022/01/29 00:53:19;;;;;;;3.42;2.30;;;;;;;;;;5028165;28;20020;-70
2022/01/29 00:55:45;;;;;;;6.28;2.28;;;;;;;;;;5028292;28;20389;-70
2022/01/29 00:58:11;;;;;;;4.43;2.28;;;;;;;;;;5027199;28;20025;-70
2022/01/29 01:00:38;;;;;;;4.45;2.25;;;;;;;;;;5027556;28;20121;-70
2022/01/29 01:03:04;;;;;;;5.60;2.58;;;;;;;;;;5026341;28;20566;-70
2022/01/29 01:05:30;;;;;;;6.85;2.50;;;;;;;;;;5028000;28;20040;-70
2022/01/29 01:07:56;;;;;;;8.23;3.20;;;;;;;;;;5028491;28;20021;-71
2022/01/29 01:10:22;;;;;;;8.98;2.97;;;;;;;;;;5027596;28;20032;-70
2022/01/29 01:12:48;;;;;;;7.72;2.85;;;;;;;;;;5027878;28;20538;-70
2022/01/29 01:15:14;;;;;;;6.53;3.70;;;;;;;;;;5027473;28;20532;-70
2022/01/29 01:17:41;;;;;;;5.43;3.13;;;;;;;;;;5026370;28;20108;-70
2022/01/29 01:20:07;;;;;;;5.30;2.88;;;;;;;;;;5027540;28;20095;-70
2022/01/29 01:22:33;;;;;;;6.82;3.05;;;;;;;;;;5027710;28;20052;-70
2022/01/29 01:25:00;;;;;;;5.70;2.88;;;;;;;;;;5027785;28;20100;-70
2022/01/29 01:27:26;;;;;;;5.95;2.67;;;;;;;;;;5027694;28;20009;-70
2022/01/29 01:29:52;;;;;;;4.45;2.80;;;;;;;;;;5026475;28;20029;-70
2022/01/29 01:32:18;;;;;;;7.18;3.25;;;;;;;;;;5025959;28;20108;-70
2022/01/29 01:34:49;;;;;;;6.50;2.83;;;;;;;;;;5024286;28;20021;-69
2022/01/29 01:37:33;;;;;;;7.07;3.65;;;;;;;;;;5027343;28;20421;-70
2022/01/29 01:39:59;;;;;;;6.40;3.30;;;;;;;;;;5025020;28;20614;-70
2022/01/29 01:42:26;;;;;;;9.65;3.50;;;;;;;;;;5027007;28;20025;-70
2022/01/29 01:44:53;;;;;;;9.57;3.28;;;;;;;;;;5025828;28;20508;-70
2022/01/29 01:47:19;;;;;;;8.35;3.50;;;;;;;;;;5027061;28;20091;-70
2022/01/29 01:49:45;;;;;;;9.73;3.63;;;;;;;;;;5027333;28;20033;-70
2022/01/29 01:52:13;;;;;;;8.77;3.85;;;;;;;;;;5027136;28;20025;-70
2022/01/29 01:54:40;;;;;;;7.88;3.50;;;;;;;;;;5025646;28;20033;-70
2022/01/29 01:57:06;;;;;;;7.68;3.25;;;;;;;;;;5027149;28;20018;-70
2022/01/29 01:59:33;;;;;;;17.05;3.50;;;;;;;;;;5025934;28;20033;-70
2022/01/29 02:01:59;;;;;;;19.58;4.78;;;;;;;;;;5026648;28;20022;-70
2022/01/29 02:04:25;;;;;;;11.38;4.40;;;;;;;;;;5026468;28;20033;-70
2022/01/29 02:06:52;;;;;;;14.85;4.70;;;;;;;;;;5027050;28;20037;-70
2022/01/29 02:09:20;;;;;;;21.52;3.65;;;;;;;;;;5025483;28;20040;-70
2022/01/29 02:11:51;;;;;;;20.35;3.85;;;;;;;;;;5023253;28;20028;-70
2022/01/29 02:14:18;;;;;;;14.43;3.20;;;;;;;;;;5026648;28;20025;-70
2022/01/29 02:16:45;;;;;;;13.98;3.20;;;;;;;;;;5026661;28;20599;-70
2022/01/29 02:19:11;;;;;;;12.00;2.63;;;;;;;;;;5025212;28;20110;-70
2022/01/29 02:21:37;;;;;;;6.82;2.03;;;;;;;;;;5026403;28;20021;-70
2022/01/29 02:24:04;;;;;;;13.63;2.72;;;;;;;;;;5025175;28;20096;-70
2022/01/29 02:26:30;;;;;;;10.90;2.15;;;;;;;;;;5026471;28;20037;-70
2022/01/29 02:28:56;;;;;;;8.13;1.83;;;;;;;;;;5025096;28;20025;-70
2022/01/29 02:31:23;;;;;;;14.43;1.80;;;;;;;;;;5026065;28;20733;-70
2022/01/29 02:33:49;;;;;;;8.40;2.05;;;;;;;;;;5026175;28;20079;-69
2022/01/29 02:36:15;;;;;;;6.88;2.08;;;;;;;;;;5024780;28;20507;-70
2022/01/29 02:38:41;;;;;;;10.45;1.95;;;;;;;;;;5025596;28;20024;-70
2022/01/29 02:41:08;;;;;;;10.57;2.30;;;;;;;;;;5024880;28;20563;-70
2022/01/29 02:43:49;;;;;;;9.63;2.15;;;;;;;;;;5025648;28;20076;-70
2022/01/29 02:46:28;;;;;;;10.70;2.20;;;;;;;;;;5022089;28;20143;-70
2022/01/29 02:48:56;;;;;;;9.40;2.28;;;;;;;;;;5024732;28;20527;-69
2022/01/29 02:51:22;;;;;;;10.30;2.10;;;;;;;;;;5025835;28;20033;-70
2022/01/29 02:53:48;;;;;;;9.00;1.95;;;;;;;;;;5025980;28;20535;-70
2022/01/29 02:56:14;;;;;;;7.65;1.98;;;;;;;;;;5023825;28;20610;-70
2022/01/29 02:58:41;;;;;;;6.28;2.03;;;;;;;;;;5023979;28;20041;-70
2022/01/29 03:01:09;;;;;;;7.88;2.58;;;;;;;;;;5025029;28;20122;-70
2022/01/29 03:03:35;;;;;;;4.78;2.20;;;;;;;;;;5021929;28;20022;-70
2022/01/29 03:06:03;;;;;;;11.98;1.98;;;;;;;;;;5025650;28;20433;-70
2022/01/29 03:08:30;;;;;;;10.77;1.70;;;;;;;;;;5024372;28;20473;-70
2022/01/29 03:10:56;;;;;;;7.35;2.08;;;;;;;;;;5025143;28;20033;-69
2022/01/29 03:13:22;;;;;;;6.97;1.67;;;;;;;;;;5025074;28;20018;-70
2022/01/29 03:15:48;;;;;;;7.47;1.75;;;;;;;;;;5025222;28;20410;-70
2022/01/29 03:18:14;;;;;;;6.75;2.00;;;;;;;;;;5025037;28;20065;-70
2022/01/29 03:20:40;;;;;;;6.00;2.00;;;;;;;;;;5020230;28;20037;-69
2022/01/29 03:23:06;;;;;;;15.05;2.42;;;;;;;;;;5025123;28;20026;-69
2022/01/29 03:25:32;;;;;;;8.43;2.60;;;;;;;;;;5024994;28;20029;-70
2022/01/29 03:27:59;;;;;;;8.05;1.65;;;;;;;;;;5023021;28;20043;-69
2022/01/29 03:30:25;;;;;;;8.55;1.95;;;;;;;;;;5023606;28;20743;-69
2022/01/29 03:32:51;;;;;;;6.70;2.38;;;;;;;;;;5024488;28;20106;-70
2022/01/29 03:35:17;;;;;;;7.05;2.03;;;;;;;;;;5023935;28;20034;-69
2022/01/29 03:37:43;;;;;;;4.80;1.80;;;;;;;;;;5024941;28;20155;-69
2022/01/29 03:40:10;;;;;;;8.20;1.95;;;;;;;;;;5024104;28;20056;-69
2022/01/29 03:42:43;;;;;;;6.38;2.03;;;;;;;;;;5024326;28;20589;-69
2022/01/29 03:45:10;;;;;;;9.25;2.38;;;;;;;;;;5023067;28;20021;-70
2022/01/29 03:47:36;;;;;;;6.25;1.92;;;;;;;;;;5023881;28;20029;-70
2022/01/29 03:50:04;;;;;;;6.80;1.90;;;;;;;;;;5026861;28;20068;-70
2022/01/29 03:52:30;;;;;;;6.18;1.92;;;;;;;;;;5025394;28;20030;-70
2022/01/29 03:54:56;;;;;;;7.25;2.03;;;;;;;;;;5026468;28;20075;-70
2022/01/29 03:57:22;;;;;;;9.98;2.13;;;;;;;;;;5021849;28;20049;-70
2022/01/29 03:59:48;;;;;;;5.53;1.45;;;;;;;;;;5020996;28;20029;-70
2022/01/29 04:02:14;;;;;;;7.80;2.00;;;;;;;;;;5023533;28;20101;-70
2022/01/29 04:04:40;;;;;;;7.22;2.30;;;;;;;;;;5023611;28;20609;-70
2022/01/29 04:07:11;;;;;;;5.88;2.10;;;;;;;;;;5022037;28;20026;-70
2022/01/29 04:09:37;;;;;;;5.45;1.80;;;;;;;;;;5022933;28;20270;-70
2022/01/29 04:12:03;;;;;;;8.57;2.20;;;;;;;;;;5023062;28;20033;-70
2022/01/29 04:14:36;;;;;;;3.13;1.60;;;;;;;;;;5023539;28;20501;-70
2022/01/29 04:17:03;;;;;;;3.05;1.38;;;;;;;;;;5023386;28;20081;-70
2022/01/29 04:19:29;;;;;;;4.68;1.30;;;;;;;;;;5022897;28;20064;-70
2022/01/29 04:21:55;;;;;;;7.78;1.80;;;;;;;;;;5021918;28;20489;-70
2022/01/29 04:24:21;;;;;;;6.20;1.73;;;;;;;;;;5023436;28;20575;-70
2022/01/29 04:26:47;;;;;;;4.53;1.50;;;;;;;;;;5023201;28;20401;-70
2022/01/29 04:29:13;;;;;;;3.67;1.80;;;;;;;;;;5021719;28;20764;-70
2022/01/29 04:31:55;;;;;;;4.13;1.30;;;;;;;;;;5023445;28;20041;-70
2022/01/29 04:34:22;;;;;;;4.38;1.50;;;;;;;;;;5023249;28;20026;-70
2022/01/29 04:36:48;;;;;;;3.75;1.20;;;;;;;;;;5022611;28;20227;-70
2022/01/29 04:39:15;;;;;;;6.22;1.60;;;;;;;;;;5021447;28;20033;-70
2022/01/29 04:41:41;;;;;;;5.38;1.42;;;;;;;;;;5022861;28;20037;-70
2022/01/29 04:44:07;;;;;;;9.38;2.20;;;;;;;;;;5023233;28;20220;-70
2022/01/29 04:46:33;;;;;;;4.60;1.40;;;;;;;;;;5023085;28;20090;-70
2022/01/29 04:48:59;;;;;;;8.35;2.53;;;;;;;;;;5019272;28;20599;-70
2022/01/29 04:51:25;;;;;;;5.05;1.77;;;;;;;;;;5023144;28;20044;-70
2022/01/29 04:53:52;;;;;;;5.60;1.88;;;;;;;;;;5022581;28;20079;-70
2022/01/29 04:56:18;;;;;;;5.47;1.88;;;;;;;;;;5022329;28;20033;-70
2022/01/29 04:58:44;;;;;;;3.92;1.88;;;;;;;;;;5022817;28;20017;-71
2022/01/29 05:01:10;;;;;;;8.55;1.88;;;;;;;;;;5020424;28;20543;-70
2022/01/29 05:03:36;;;;;;;7.78;2.40;;;;;;;;;;5023261;28;20021;-70
2022/01/29 05:06:09;;;;;;;4.43;1.98;;;;;;;;;;5023316;28;20360;-70
2022/01/29 05:08:35;;;;;;;5.47;1.92;;;;;;;;;;5022638;28;20108;-70
2022/01/29 05:11:01;;;;;;;6.65;1.58;;;;;;;;;;5022412;28;20034;-70
2022/01/29 05:13:29;;;;;;;8.05;1.95;;;;;;;;;;5022397;28;20035;-70
2022/01/29 05:16:24;;;;;;;8.82;1.95;;;;;;;;;;5021145;28;20056;-70
2022/01/29 05:27:13;;;;;;;9.77;2.10;;;;;;;;;;5022262;28;20036;-70
2022/01/29 05:29:39;;;;;;;6.25;2.30;;;;;;;;;;5022587;28;20030;-70
2022/01/29 05:32:06;;;;;;;11.65;2.65;;;;;;;;;;5022113;28;20576;-70
2022/01/29 05:34:33;;;;;;;10.68;1.90;;;;;;;;;;5021194;28;20425;-70
2022/01/29 05:37:00;;;;;;;21.50;3.35;;;;;;;;;;5021050;28;20033;-70
2022/01/29 05:39:26;;;;;;;7.97;1.73;;;;;;;;;;5021870;28;20503;-70
2022/01/29 05:41:53;;;;;;;3.33;1.30;;;;;;;;;;5021568;28;20024;-70
2022/01/29 05:44:19;;;;;;;4.13;1.48;;;;;;;;;;5019664;28;20392;-70
2022/01/29 05:46:46;;;;;;;3.45;1.23;;;;;;;;;;5021410;28;20039;-71
2022/01/29 05:49:12;;;;;;;3.22;1.13;;;;;;;;;;5019625;28;20029;-71
2022/01/29 05:51:38;;;;;;;4.97;1.13;;;;;;;;;;5021011;28;20052;-71
2022/01/29 05:54:04;;;;;;;5.40;1.35;;;;;;;;;;5022052;28;20026;-71
2022/01/29 05:56:30;;;;;;;3.75;1.40;;;;;;;;;;5020074;28;20033;-71
2022/01/29 05:58:57;;;;;;;8.30;1.90;;;;;;;;;;5021624;28;20030;-71
2022/01/29 06:01:23;;;;;;;2.75;1.27;;;;;;;;;;5019762;28;20676;-71
2022/01/29 06:03:49;;;;;;;7.38;1.85;;;;;;;;;;5021858;28;20815;-71
2022/01/29 06:06:16;;;;;;;10.88;1.50;;;;;;;;;;5020179;28;20197;-71
2022/01/29 06:08:42;;;;;;;6.00;2.13;;;;;;;;;;5021713;28;20044;-71
2022/01/29 06:11:08;;;;;;;9.07;1.77;;;;;;;;;;5021352;28;20037;-71
2022/01/29 06:13:34;;;;;;;5.10;1.60;;;;;;;;;;5020569;28;20028;-71
2022/01/29 06:16:01;;;;;;;9.90;1.67;;;;;;;;;;5021267;28;20049;-71
2022/01/29 06:18:28;;;;;;;3.85;1.58;;;;;;;;;;5020133;28;20026;-71
2022/01/29 06:20:57;;;;;;;8.55;1.05;;;;;;;;;;5020819;28;20033;-72
2022/01/29 06:23:30;;;;;;;6.53;2.20;;;;;;;;;;5021476;28;20052;-71
2022/01/29 06:26:00;;;;;;;5.65;1.48;;;;;;;;;;5021290;28;20519;-71
2022/01/29 06:28:26;;;;;;;7.53;1.45;;;;;;;;;;5021249;28;20025;-71
2022/01/29 06:30:52;;;;;;;4.68;1.60;;;;;;;;;;5019660;28;20461;-69
2022/01/29 06:33:18;;;;;;;2.67;1.20;;;;;;;;;;5020335;28;20029;-68
2022/01/29 06:35:45;;;;;;;4.38;1.40;;;;;;;;;;5019848;28;20516;-68
2022/01/29 06:38:12;;;;;;;4.03;1.08;;;;;;;;;;5020836;28;20025;-69
2022/01/29 06:40:39;;;;;;;5.28;1.38;;;;;;;;;;5020080;28;20090;-68
2022/01/29 06:43:05;;;;;;;2.72;1.38;;;;;;;;;;5018938;28;20104;-68
2022/01/29 06:45:32;;;;;;;3.55;1.17;;;;;;;;;;5019982;28;20533;-69
2022/01/29 06:47:58;;;;;;;2.78;1.20;;;;;;;;;;5018179;28;20021;-68
2022/01/29 06:50:25;;;;;;;6.40;1.60;;;;;;;;;;5020183;28;20038;-69
2022/01/29 06:52:51;;;;;;;6.75;1.95;;;;;;;;;;5020393;28;20087;-69
2022/01/29 06:55:17;;;;;;;4.78;1.52;;;;;;;;;;5018897;28;20038;-69
2022/01/29 06:57:43;;;;;;;4.55;1.35;;;;;;;;;;5020162;28;20100;-69
2022/01/29 07:00:10;;;;;;;4.43;1.50;;;;;;;;;;5020383;28;20041;-68
2022/01/29 07:02:37;;;;;;;8.95;1.85;;;;;;;;;;5019966;28;20145;-69
2022/01/29 07:05:04;;;;;;;4.93;1.42;;;;;;;;;;5020131;28;20039;-69
2022/01/29 07:07:30;;;;;;;2.58;1.25;;;;;;;;;;5020107;28;20018;-69
2022/01/29 07:09:57;;;;;;;4.43;1.50;;;;;;;;;;5018493;28;20025;-69
2022/01/29 07:12:23;;;;;;;4.25;1.17;;;;;;;;;;5018781;28;20032;-69
2022/01/29 07:14:50;;;;;;;2.28;1.10;;;;;;;;;;5019789;28;20488;-68
2022/01/29 07:17:17;;;;;;;3.75;1.40;;;;;;;;;;5019279;28;20045;-70
2022/01/29 07:19:46;;;;;;;2.88;1.35;;;;;;;;;;5017976;28;20441;-69
2022/01/29 07:22:12;;;;;;;5.68;1.33;;;;;;;;;;5000488;28;20042;-69
2022/01/29 07:24:39;;;;;;;4.38;1.20;;;;;;;;;;4999907;28;20030;-69
2022/01/29 07:27:06;;;;;;;5.25;2.67;;;;;;;;;;5000741;28;20529;-68
2022/01/29 07:29:33;;;;;;;4.13;1.33;;;;;;;;;;5000287;28;20060;-69
2022/01/29 07:31:59;;;;;;;5.25;1.90;;;;;;;;;;5015199;28;20029;-69
2022/01/29 07:34:26;;;;;;;3.47;1.63;;;;;;;;;;5019859;28;20082;-69
2022/01/29 07:36:53;;;;;;;3.60;1.30;;;;;;;;;;5019381;28;20033;-69
2022/01/29 07:39:19;;;;;;;8.73;1.60;;;;;;;;;;5019834;28;20036;-68
2022/01/29 07:41:46;;;;;;;4.18;1.42;;;;;;;;;;5018748;28;20036;-69
2022/01/29 07:44:12;;;;;;;3.25;1.35;;;;;;;;;;5019931;28;20033;-70
2022/01/29 07:46:38;;;;;;;3.10;1.30;;;;;;;;;;5020051;28;20041;-69
2022/01/29 07:49:04;;;;;;;3.90;1.20;;;;;;;;;;5017564;28;20025;-68
2022/01/29 07:51:31;;;;;;;2.75;1.17;;;;;;;;;;5019470;28;20156;-69
2022/01/29 07:53:57;;;;;;;3.30;1.33;;;;;;;;;;5020216;28;20092;-69
2022/01/29 07:56:23;;;;;;;3.17;1.25;;;;;;;;;;5009526;28;20378;-69
2022/01/29 07:58:50;;;;;;;3.95;1.30;;;;;;;;;;5000298;28;20030;-69
2022/01/29 08:01:16;;;;;;;7.07;1.80;;;;;;;;;;5009975;28;20041;-68
2022/01/29 08:03:46;;;;;;;6.50;1.60;;;;;;;;;;5018273;28;20181;-69
2022/01/29 08:06:13;;;;;;;4.65;1.40;;;;;;;;;;5020224;28;20455;-69
2022/01/29 08:08:39;;;;;;;3.15;1.70;;;;;;;;;;5019666;28;20030;-69
2022/01/29 08:11:05;;;;;;;4.35;1.73;;;;;;;;;;5019770;28;20132;-70
2022/01/29 08:13:31;;;;;;;6.60;2.08;;;;;;;;;;5019675;28;20477;-69
2022/01/29 08:15:57;;;;;;;6.25;2.08;;;;;;;;;;5018157;28;20061;-69
2022/01/29 08:18:24;;;;;;;3.65;1.23;;;;;;;;;;5020602;28;20044;-69
2022/01/29 08:20:50;;;;;;;2.30;1.35;;;;;;;;;;5020127;28;20053;-69
2022/01/29 08:23:16;;;;;;;4.25;1.25;;;;;;;;;;5019683;28;20059;-69
2022/01/29 08:25:42;;;;;;;4.63;1.50;;;;;;;;;;5019146;28;20030;-69
2022/01/29 08:28:08;;;;;;;11.43;2.25;;;;;;;;;;5018267;28;20150;-69
2022/01/29 08:30:34;;;;;;;4.65;1.83;;;;;;;;;;5019018;28;20056;-68
2022/01/29 08:33:00;;;;;;;14.55;2.10;;;;;;;;;;5018698;28;20060;-70
2022/01/29 08:35:27;;;;;;;4.05;1.48;;;;;;;;;;5020358;28;20029;-69
2022/01/29 08:37:54;;;;;;;3.65;1.85;;;;;;;;;;5021627;28;20044;-69
2022/01/29 08:40:20;;;;;;;7.40;1.80;;;;;;;;;;5023163;28;20123;-69
2022/01/29 08:42:47;;;;;;;3.97;1.50;;;;;;;;;;5023365;28;20025;-69
2022/01/29 08:45:13;;;;;;;3.60;1.50;;;;;;;;;;5022788;28;20029;-69
2022/01/29 08:47:40;;;;;;;3.50;1.42;;;;;;;;;;5024988;28;20779;-69
2022/01/29 08:50:06;;;;;;;2.50;1.20;;;;;;;;;;5025087;28;20065;-68
2022/01/29 08:52:33;;;;;;;3.60;1.42;;;;;;;;;;5010924;28;20038;-69
2022/01/29 08:54:59;;;;;;;4.70;1.42;;;;;;;;;;5001909;28;20535;-68
2022/01/29 08:57:25;;;;;;;5.32;1.55;;;;;;;;;;5020394;28;20030;-69
2022/01/29 08:59:51;;;;;;;4.75;1.70;;;;;;;;;;5023029;28;20084;-69
2022/01/29 09:02:18;;;;;;;3.08;1.30;;;;;;;;;;5021832;28;20029;-69
2022/01/29 09:04:44;;;;;;;3.55;1.50;;;;;;;;;;5021518;28;20117;-68
2022/01/29 09:07:10;;;;;;;2.95;1.40;;;;;;;;;;5021592;28;20432;-69
2022/01/29 09:09:40;;;;;;;7.85;2.70;;;;;;;;;;5020684;28;20045;-69
2022/01/29 09:12:06;;;;;;;10.10;4.68;;;;;;;;;;5022751;28;20103;-69
2022/01/29 09:14:32;;;;;;;4.00;2.33;;;;;;;;;;5022138;28;20033;-68
2022/01/29 09:16:59;;;;;;;4.88;2.53;;;;;;;;;;5022701;28;20099;-68
2022/01/29 09:19:25;;;;;;;4.00;2.30;;;;;;;;;;5020703;28;20103;-70
2022/01/29 09:21:51;;;;;;;4.57;3.03;;;;;;;;;;5023185;28;20025;-68
2022/01/29 09:24:17;;;;;;;6.78;2.15;;;;;;;;;;5022107;28;20030;-68
2022/01/29 09:26:43;;;;;;;3.83;2.30;;;;;;;;;;5020599;28;20025;-69
2022/01/29 09:29:09;;;;;;;4.15;2.30;;;;;;;;;;5022062;28;20070;-69
2022/01/29 09:31:35;;;;;;;4.55;1.58;;;;;;;;;;5021287;28;20394;-68
2022/01/29 09:34:02;;;;;;;4.15;1.75;;;;;;;;;;5022806;28;20108;-68
2022/01/29 09:36:28;;;;;;;4.55;1.65;;;;;;;;;;5022704;28;20025;-69
2022/01/29 09:38:55;;;;;;;5.63;1.60;;;;;;;;;;5021973;28;20047;-69
2022/01/29 09:41:24;;;;;;;8.15;2.00;;;;;;;;;;5020564;28;20029;-69
2022/01/29 09:43:51;;;;;;;6.68;1.55;;;;;;;;;;5022097;28;20028;-69
2022/01/29 09:46:17;;;;;;;4.55;1.35;;;;;;;;;;5021082;28;20079;-69
2022/01/29 09:48:47;;;;;;;12.65;2.15;;;;;;;;;;5019240;28;20653;-69
2022/01/29 09:51:13;;;;;;;3.42;1.10;;;;;;;;;;5005699;28;20052;-70
2022/01/29 09:53:40;;;;;;;2.50;1.33;;;;;;;;;;5016078;28;20060;-69
2022/01/29 09:56:06;;;;;;;4.35;2.38;;;;;;;;;;5020562;28;20033;-69
2022/01/29 09:58:33;;;;;;;4.10;1.42;;;;;;;;;;5018105;28;20033;-69
2022/01/29 10:01:02;;;;;;;3.92;1.80;;;;;;;;;;5021020;28;20041;-73
2022/01/29 10:03:28;;;;;;;5.20;1.70;;;;;;;;;;5019546;28;20087;-69
2022/01/29 10:05:57;;;;;;;4.18;1.60;;;;;;;;;;5021442;28;20029;-73
2022/01/29 10:08:23;;;;;;;10.18;2.20;;;;;;;;;;5020368;28;20457;-69
2022/01/29 10:10:54;;;;;;;5.18;1.55;;;;;;;;;;5021530;28;20029;-68
2022/01/29 10:13:23;;;;;;;10.77;2.83;;;;;;;;;;5021530;28;20553;-68
2022/01/29 10:15:50;;;;;;;5.85;2.33;;;;;;;;;;5018829;28;20594;-69
2022/01/29 10:18:23;;;;;;;6.03;1.55;;;;;;;;;;5020544;28;20485;-69
2022/01/29 10:20:50;;;;;;;5.25;1.33;;;;;;;;;;5020820;28;20033;-69
2022/01/29 10:23:16;;;;;;;6.68;1.02;;;;;;;;;;5020741;28;20033;-70
2022/01/29 10:25:44;;;;;;;3.92;1.58;;;;;;;;;;5019464;28;20477;-69
2022/01/29 10:28:14;;;;;;;4.38;1.40;;;;;;;;;;5019586;28;20525;-69
2022/01/29 10:30:50;;;;;;;5.93;2.28;;;;;;;;;;5020747;28;20033;-69
2022/01/29 10:33:19;;;;;;;7.38;1.88;;;;;;;;;;5020922;28;20064;-72
2022/01/29 10:35:48;;;;;;;4.80;2.03;;;;;;;;;;5020004;28;20029;-69
2022/01/29 10:38:18;;;;;;;4.35;1.70;;;;;;;;;;5019073;28;20550;-71
2022/01/29 10:40:44;;;;;;;3.60;1.30;;;;;;;;;;5010015;28;20635;-69
2022/01/29 10:43:10;;;;;;;10.02;2.00;;;;;;;;;;5016441;28;20028;-72
2022/01/29 10:45:37;;;;;;;8.07;4.22;;;;;;;;;;5020193;28;20692;-69
2022/01/29 10:48:06;;;;;;;6.05;3.22;;;;;;;;;;5016224;28;20039;-69
2022/01/29 10:50:33;;;;;;;7.85;1.98;;;;;;;;;;5018720;28;20025;-69
2022/01/29 10:53:19;;;;;;;6.82;3.55;;;;;;;;;;5018091;28;20195;-69
2022/01/29 10:55:58;;;;;;;3.63;1.48;;;;;;;;;;5020651;28;20739;-70
2022/01/29 10:58:24;;;;;;;6.95;1.67;;;;;;;;;;5021221;28;20033;-69
2022/01/29 11:01:10;;;;;;;6.18;1.70;;;;;;;;;;5021376;28;20397;-73
2022/01/29 11:03:36;;;;;;;10.35;2.53;;;;;;;;;;5019989;28;20025;-69
2022/01/29 11:06:02;;;;;;;7.28;1.90;;;;;;;;;;5021620;28;20036;-69
2022/01/29 11:08:29;;;;;;;8.85;1.95;;;;;;;;;;5020546;28;20021;-68
2022/01/29 11:10:55;;;;;;;5.10;1.65;;;;;;;;;;5000415;28;20625;-68
2022/01/29 11:13:22;;;;;;;9.63;1.48;;;;;;;;;;5000710;28;20040;-68
2022/01/29 11:15:51;;;;;;;7.65;2.00;;;;;;;;;;5000258;28;20060;-68
2022/01/29 11:18:17;;;;;;;6.22;2.33;;;;;;;;;;5012173;28;20031;-69
2022/01/29 11:20:43;;;;;;;5.18;1.30;;;;;;;;;;5019467;28;20076;-68
2022/01/29 11:23:09;;;;;;;8.27;1.40;;;;;;;;;;5020035;28;20018;-68
2022/01/29 11:25:35;;;;;;;6.03;2.58;;;;;;;;;;5019339;28;20230;-69
2022/01/29 11:28:21;;;;;;;10.43;4.43;;;;;;;;;;5018671;28;20026;-68
2022/01/29 11:31:07;;;;;;;7.00;1.70;;;;;;;;;;5017990;28;20069;-69
2022/01/29 11:33:33;;;;;;;5.88;1.40;;;;;;;;;;5021838;28;20040;-69
2022/01/29 11:36:00;;;;;;;4.50;1.00;;;;;;;;;;5020875;28;20040;-68
2022/01/29 11:38:33;;;;;;;7.70;1.58;;;;;;;;;;5019122;28;20022;-72
2022/01/29 11:41:01;;;;;;;5.05;1.50;;;;;;;;;;5020423;28;20037;-68
2022/01/29 11:43:28;;;;;;;8.55;1.17;;;;;;;;;;5020672;28;20087;-68
2022/01/29 11:45:57;;;;;;;5.07;2.00;;;;;;;;;;5020022;28;20036;-68
2022/01/29 11:48:27;;;;;;;3.88;1.25;;;;;;;;;;5020791;28;20060;-68
2022/01/29 11:50:54;;;;;;;11.18;2.10;;;;;;;;;;5019167;28;20436;-68
2022/01/29 11:53:20;;;;;;;7.80;1.40;;;;;;;;;;5021657;28;20466;-68
2022/01/29 11:55:48;;;;;;;7.63;1.77;;;;;;;;;;5021600;28;20152;-68
2022/01/29 11:58:17;;;;;;;8.07;1.63;;;;;;;;;;5022207;28;20029;-68
2022/01/29 12:01:02;;;;;;;5.32;1.75;;;;;;;;;;5021263;28;20055;-68
2022/01/29 12:03:35;;;;;;;6.80;1.45;;;;;;;;;;5019315;28;20417;-68
2022/01/29 12:09:03;;;;;;;4.43;1.30;;;;;;;;;;5021969;28;20064;-71
2022/01/29 12:11:29;;;;;;;5.65;1.88;;;;;;;;;;5024749;28;20408;-68
2022/01/29 12:14:13;;;;;;;5.40;1.67;;;;;;;;;;5024430;28;20155;-68
2022/01/29 12:16:57;;;;;;;6.68;1.55;;;;;;;;;;5026193;28;20057;-68
2022/01/29 12:19:41;;;;;;;5.97;1.90;;;;;;;;;;5025907;28;20150;-71
2022/01/29 12:22:11;;;;;;;6.05;2.00;;;;;;;;;;5024642;28;20057;-68
2022/01/29 12:24:38;;;;;;;14.02;2.78;;;;;;;;;;5025392;28;20358;-68
2022/01/29 12:27:05;;;;;;;6.88;2.10;;;;;;;;;;5023673;28;20499;-68
2022/01/29 12:29:31;;;;;;;8.73;1.75;;;;;;;;;;5025696;28;20029;-68
2022/01/29 12:31:58;;;;;;;7.05;1.67;;;;;;;;;;5026364;28;20053;-68
2022/01/29 12:34:26;;;;;;;5.70;1.50;;;;;;;;;;5023652;28;20032;-68
2022/01/29 12:36:53;;;;;;;8.73;3.13;;;;;;;;;;5026348;28;20037;-68
2022/01/29 12:39:23;;;;;;;4.35;1.40;;;;;;;;;;5024965;28;20037;-69
2022/01/29 12:42:12;;;;;;;4.47;1.33;;;;;;;;;;5024076;28;20114;-68
2022/01/29 12:44:42;;;;;;;4.20;1.52;;;;;;;;;;5024825;28;20036;-68
2022/01/29 12:47:08;;;;;;;7.35;1.63;;;;;;;;;;5023771;28;20168;-69
2022/01/29 12:49:41;;;;;;;5.88;2.58;;;;;;;;;;5025041;28;20053;-69
2022/01/29 12:52:08;;;;;;;2.83;1.60;;;;;;;;;;5024995;28;20097;-68
2022/01/29 12:54:35;;;;;;;4.10;1.70;;;;;;;;;;5025457;28;20036;-68
2022/01/29 12:57:02;;;;;;;4.60;1.38;;;;;;;;;;5023168;28;20025;-69
2022/01/29 12:59:28;;;;;;;4.88;2.20;;;;;;;;;;5024636;28;20113;-69
2022/01/29 13:01:56;;;;;;;4.50;2.15;;;;;;;;;;5024789;28;20033;-68
2022/01/29 13:04:23;;;;;;;4.80;1.63;;;;;;;;;;5024799;28;20044;-68
2022/01/29 13:06:59;;;;;;;4.68;1.10;;;;;;;;;;5023242;28;20029;-67
2022/01/29 13:09:28;;;;;;;3.58;1.25;;;;;;;;;;5024080;28;20030;-68
2022/01/29 13:11:59;;;;;;;3.33;1.58;;;;;;;;;;5025415;28;20029;-68
2022/01/29 13:14:26;;;;;;;3.22;1.30;;;;;;;;;;5025373;28;20105;-68
2022/01/29 13:16:53;;;;;;;5.90;0.95;;;;;;;;;;5022946;28;20119;-69
2022/01/29 13:19:23;;;;;;;3.67;1.20;;;;;;;;;;5024806;28;20037;-69
2022/01/29 13:21:50;;;;;;;4.15;1.30;;;;;;;;;;5023867;28;20028;-68
2022/01/29 13:24:29;;;;;;;3.58;1.75;;;;;;;;;;5024325;28;20033;-68
2022/01/29 13:26:59;;;;;;;4.05;1.77;;;;;;;;;;5023637;28;20029;-68
2022/01/29 13:29:36;;;;;;;4.20;1.27;;;;;;;;;;5023806;28;20021;-68
2022/01/29 13:32:03;;;;;;;3.28;1.48;;;;;;;;;;5021041;28;20021;-68
2022/01/29 13:34:31;;;;;;;3.72;1.80;;;;;;;;;;5022515;28;20033;-68
2022/01/29 13:36:58;;;;;;;3.17;1.20;;;;;;;;;;5023922;28;20029;-71
2022/01/29 13:39:28;;;;;;;5.03;1.48;;;;;;;;;;5022553;28;20044;-72
2022/01/29 13:42:08;;;;;;;1.80;1.15;;;;;;;;;;5023575;28;20832;-68
2022/01/29 13:44:34;;;;;;;4.10;1.08;;;;;;;;;;5023864;28;20049;-69
2022/01/29 13:47:07;;;;;;;4.03;1.10;;;;;;;;;;5023590;28;20029;-68
2022/01/29 13:49:34;;;;;;;3.50;1.25;;;;;;;;;;5023247;28;20159;-69
2022/01/29 13:52:11;;;;;;;6.28;1.80;;;;;;;;;;5023663;28;20371;-68
2022/01/29 13:54:38;;;;;;;5.90;4.30;;;;;;;;;;5023815;28;20033;-68
2022/01/29 13:57:08;;;;;;;6.80;3.35;;;;;;;;;;5023840;28;20022;-68
2022/01/29 13:59:37;;;;;;;8.00;4.32;;;;;;;;;;5021874;28;20424;-68
2022/01/29 14:02:05;;;;;;;3.80;1.65;;;;;;;;;;5024036;28;20108;-68
2022/01/29 14:04:34;;;;;;;10.00;4.57;;;;;;;;;;5023280;28;20068;-68
2022/01/29 14:07:13;;;;;;;10.07;1.40;;;;;;;;;;5022911;28;20021;-74
2022/01/29 14:10:10;;;;;;;5.25;2.35;;;;;;;;;;5023064;28;20037;-68
2022/01/29 14:12:47;;;;;;;3.42;1.20;;;;;;;;;;5023934;28;20563;-68
2022/01/29 14:15:13;;;;;;;3.22;1.30;;;;;;;;;;5021363;28;20831;-69
2022/01/29 14:17:40;;;;;;;7.95;1.63;;;;;;;;;;5023071;28;20095;-68
2022/01/29 14:20:08;;;;;;;8.93;1.52;;;;;;;;;;5022666;28;20056;-68
2022/01/29 14:22:35;;;;;;;3.33;1.23;;;;;;;;;;5022890;28;20144;-67
2022/01/29 14:25:04;;;;;;;5.63;1.40;;;;;;;;;;5020318;28;20021;-70
2022/01/29 14:27:30;;;;;;;7.75;1.52;;;;;;;;;;5021889;28;20021;-69
2022/01/29 14:29:57;;;;;;;6.20;1.88;;;;;;;;;;5022506;28;20036;-68
2022/01/29 14:32:24;;;;;;;4.97;1.50;;;;;;;;;;5021841;28;20037;-70
2022/01/29 14:34:50;;;;;;;4.95;1.10;;;;;;;;;;5019274;28;20032;-69
2022/01/29 14:37:17;;;;;;;4.43;1.13;;;;;;;;;;5021255;28;20032;-69
2022/01/29 14:39:43;;;;;;;8.65;1.50;;;;;;;;;;5016989;28;20029;-69
2022/01/29 14:42:10;;;;;;;2.92;1.05;;;;;;;;;;5022355;28;20134;-68
2022/01/29 14:44:43;;;;;;;3.60;1.20;;;;;;;;;;5021677;28;20317;-69
2022/01/29 14:47:09;;;;;;;5.18;1.10;;;;;;;;;;5020465;28;20029;-69
2022/01/29 14:49:36;;;;;;;4.03;1.20;;;;;;;;;;5022039;28;20663;-69
2022/01/29 14:52:04;;;;;;;3.58;1.20;;;;;;;;;;5022208;28;20021;-68
2022/01/29 14:54:39;;;;;;;6.55;2.30;;;;;;;;;;5023029;28;20398;-69
2022/01/29 14:57:06;;;;;;;4.93;2.13;;;;;;;;;;5020800;28;20031;-69